Time;durP1;ratioP1;P1;durP2;ratioP2;P2;SDS_P1;SDS_P2;PMS_P1;PMS_P2;Temp;Humidity;BMP_temperature;BMP_pressure;BME280_temperature;BME280_humidity;BME280_pressure;Samples;Min_cycle;Max_cycle;Signal;HPM_P1;HPM_P2
2023/01/13 00:00:45;;;;;;;0.20;0.13;;;;;;;;;;5061293;28;20128;-67
2023/01/13 00:03:11;;;;;;;0.10;0.10;;;;;;;;;;5043447;28;20518;-67
2023/01/13 00:05:37;;;;;;;0.20;0.20;;;;;;;;;;5058736;28;20047;-68
2023/01/13 00:08:05;;;;;;;0.27;0.20;;;;;;;;;;5060363;28;20087;-67
2023/01/13 00:10:32;;;;;;;0.30;0.30;;;;;;;;;;5053681;28;20048;-67
2023/01/13 00:12:58;;;;;;;0.30;0.30;;;;;;;;;;5057168;28;20566;-68
2023/01/13 00:15:24;;;;;;;0.40;0.30;;;;;;;;;;5062069;28;20541;-67
2023/01/13 00:17:50;;;;;;;7.50;1.90;;;;;;;;;;5063295;28;20052;-68
2023/01/13 00:20:16;;;;;;;20.53;6.00;;;;;;;;;;5070217;28;20047;-67
2023/01/13 00:22:42;;;;;;;21.60;4.87;;;;;;;;;;5068934;28;20075;-67
2023/01/13 00:25:08;;;;;;;19.23;4.50;;;;;;;;;;5069587;28;20041;-67
2023/01/13 00:27:35;;;;;;;15.77;4.50;;;;;;;;;;5049881;28;20045;-67
2023/01/13 00:30:01;;;;;;;19.60;4.57;;;;;;;;;;5049620;28;20163;-67
2023/01/13 00:32:27;;;;;;;23.23;5.00;;;;;;;;;;5066988;28;20048;-66
2023/01/13 00:34:53;;;;;;;19.80;4.43;;;;;;;;;;5069360;28;20559;-67
2023/01/13 00:37:19;;;;;;;21.27;4.10;;;;;;;;;;5069647;28;20445;-68
2023/01/13 00:39:45;;;;;;;18.03;3.87;;;;;;;;;;5069159;28;20809;-67
2023/01/13 00:44:57;;;;;;;19.57;5.17;;;;;;;;;;5069267;28;20055;-67
2023/01/13 00:47:23;;;;;;;21.43;4.40;;;;;;;;;;5067773;28;20060;-66
2023/01/13 00:49:49;;;;;;;30.37;5.90;;;;;;;;;;5069094;28;20056;-67
2023/01/13 00:52:15;;;;;;;22.57;4.67;;;;;;;;;;5067761;28;20446;-66
2023/01/13 00:54:41;;;;;;;15.73;3.43;;;;;;;;;;5068996;28;20151;-67
2023/01/13 00:57:08;;;;;;;20.10;4.03;;;;;;;;;;5068770;28;20072;-67
2023/01/13 00:59:34;;;;;;;24.50;4.47;;;;;;;;;;5068723;28;20051;-67
2023/01/13 01:02:00;;;;;;;19.33;3.77;;;;;;;;;;5067925;28;20040;-67
2023/01/13 01:04:26;;;;;;;19.20;4.47;;;;;;;;;;5069238;28;20043;-66
2023/01/13 01:06:52;;;;;;;24.63;4.40;;;;;;;;;;5069187;28;20414;-67
2023/01/13 01:09:19;;;;;;;22.83;4.63;;;;;;;;;;5068876;28;20037;-67
2023/01/13 01:11:45;;;;;;;23.67;5.07;;;;;;;;;;5051276;28;20103;-67
2023/01/13 01:14:12;;;;;;;23.63;4.47;;;;;;;;;;5049122;28;20052;-67
2023/01/13 01:16:39;;;;;;;19.97;5.40;;;;;;;;;;5048983;28;20049;-67
2023/01/13 01:19:05;;;;;;;23.53;5.27;;;;;;;;;;5049303;28;20447;-68
2023/01/13 01:21:31;;;;;;;19.70;4.50;;;;;;;;;;5030431;28;20488;-67
2023/01/13 01:23:58;;;;;;;23.33;4.90;;;;;;;;;;5031000;28;20494;-67
2023/01/13 01:26:25;;;;;;;23.27;4.93;;;;;;;;;;5048721;28;20037;-67
2023/01/13 01:28:51;;;;;;;26.50;5.77;;;;;;;;;;5047242;28;20471;-66
2023/01/13 01:31:17;;;;;;;20.40;4.47;;;;;;;;;;5058429;28;20089;-67
2023/01/13 01:33:46;;;;;;;18.37;3.90;;;;;;;;;;5068748;28;20052;-67
2023/01/13 01:36:12;;;;;;;25.20;5.20;;;;;;;;;;5054115;28;20107;-67
2023/01/13 01:38:39;;;;;;;22.90;5.00;;;;;;;;;;5048612;28;20051;-67
2023/01/13 01:41:05;;;;;;;26.97;5.73;;;;;;;;;;5048714;28;20404;-67
2023/01/13 01:44:04;;;;;;;27.57;6.80;;;;;;;;;;5047142;28;20053;-67
2023/01/13 01:46:43;;;;;;;21.70;5.60;;;;;;;;;;5043412;28;20053;-67
2023/01/13 01:49:20;;;;;;;25.53;5.20;;;;;;;;;;5047294;28;20048;-67
2023/01/13 01:51:54;;;;;;;25.33;6.00;;;;;;;;;;5047352;28;20068;-66
2023/01/13 01:54:47;;;;;;;24.50;5.00;;;;;;;;;;5048708;28;20525;-67
2023/01/13 01:57:16;;;;;;;21.80;5.43;;;;;;;;;;5039581;28;20130;-66
2023/01/13 01:59:42;;;;;;;24.10;5.00;;;;;;;;;;5048649;28;20052;-67
2023/01/13 02:02:08;;;;;;;30.73;5.43;;;;;;;;;;5047468;28;20072;-68
2023/01/13 02:04:37;;;;;;;26.10;5.30;;;;;;;;;;5047692;28;20410;-67
2023/01/13 02:07:03;;;;;;;26.13;5.47;;;;;;;;;;5030840;28;20048;-68
2023/01/13 02:09:29;;;;;;;30.90;6.90;;;;;;;;;;5048214;28;20044;-68
2023/01/13 02:14:41;;;;;;;31.73;5.70;;;;;;;;;;5051842;28;20089;-68
2023/01/13 02:17:07;;;;;;;26.43;5.03;;;;;;;;;;5052013;28;20044;-67
2023/01/13 02:19:38;;;;;;;22.87;5.20;;;;;;;;;;5052155;28;20512;-67
2023/01/13 02:22:23;;;;;;;26.10;6.53;;;;;;;;;;5051913;28;20049;-63
2023/01/13 02:25:04;;;;;;;26.10;6.13;;;;;;;;;;5053868;28;20048;-67
2023/01/13 02:27:30;;;;;;;26.47;4.97;;;;;;;;;;5072273;28;20044;-66
2023/01/13 02:32:49;;;;;;;24.30;7.13;;;;;;;;;;5070904;28;20406;-67
2023/01/13 02:35:21;;;;;;;30.40;7.57;;;;;;;;;;5070013;28;20103;-66
2023/01/13 02:37:48;;;;;;;25.87;5.07;;;;;;;;;;5071407;28;20044;-66
2023/01/13 02:40:19;;;;;;;31.30;6.43;;;;;;;;;;5071615;28;20106;-66
2023/01/13 02:45:37;;;;;;;34.50;7.10;;;;;;;;;;5070675;28;20049;-66
2023/01/13 02:48:05;;;;;;;31.03;5.73;;;;;;;;;;5071112;28;20078;-67
2023/01/13 02:50:37;;;;;;;35.67;7.73;;;;;;;;;;5071363;28;20055;-66
2023/01/13 02:53:07;;;;;;;25.37;5.40;;;;;;;;;;5071298;28;20430;-66
2023/01/13 02:55:36;;;;;;;36.90;6.50;;;;;;;;;;5070535;28;20131;-66
2023/01/13 02:58:04;;;;;;;24.10;5.20;;;;;;;;;;5071435;28;20066;-67
2023/01/13 03:00:32;;;;;;;24.70;5.30;;;;;;;;;;5061802;28;20056;-66
2023/01/13 03:02:59;;;;;;;28.60;8.73;;;;;;;;;;5051516;28;20045;-66
2023/01/13 03:05:25;;;;;;;27.27;6.40;;;;;;;;;;5056496;28;20083;-66
2023/01/13 03:07:56;;;;;;;30.10;6.77;;;;;;;;;;5071372;28;20044;-66
2023/01/13 03:10:35;;;;;;;25.00;4.57;;;;;;;;;;5071419;28;20110;-66
2023/01/13 03:13:04;;;;;;;28.90;6.97;;;;;;;;;;5069677;28;20159;-66
2023/01/13 03:15:53;;;;;;;24.40;5.30;;;;;;;;;;5062392;28;20461;-67
2023/01/13 03:18:22;;;;;;;36.37;7.90;;;;;;;;;;5051041;28;20048;-66
2023/01/13 03:20:57;;;;;;;27.83;6.27;;;;;;;;;;5050780;28;20048;-67
2023/01/13 03:23:28;;;;;;;29.13;6.10;;;;;;;;;;5049720;28;20044;-66
2023/01/13 03:26:00;;;;;;;24.87;5.37;;;;;;;;;;5060045;28;20040;-66
2023/01/13 03:28:29;;;;;;;25.47;6.13;;;;;;;;;;5069719;28;20045;-66
2023/01/13 03:31:01;;;;;;;25.33;6.33;;;;;;;;;;5070462;28;20139;-66
2023/01/13 03:33:33;;;;;;;28.60;6.00;;;;;;;;;;5070508;28;20047;-66
2023/01/13 03:36:02;;;;;;;36.57;6.30;;;;;;;;;;5069799;28;20044;-66
2023/01/13 03:38:33;;;;;;;27.80;6.00;;;;;;;;;;5069647;28;20499;-66
2023/01/13 03:41:00;;;;;;;35.83;7.17;;;;;;;;;;5050245;28;20419;-66
2023/01/13 03:46:28;;;;;;;31.63;6.97;;;;;;;;;;5060636;28;20087;-66
2023/01/13 03:48:56;;;;;;;25.07;5.73;;;;;;;;;;5069014;28;20060;-66
2023/01/13 03:51:23;;;;;;;37.10;6.40;;;;;;;;;;5069904;28;20473;-66
2023/01/13 03:53:52;;;;;;;36.77;7.07;;;;;;;;;;5070277;28;20056;-66
2023/01/13 03:56:21;;;;;;;29.97;6.83;;;;;;;;;;5052582;28;20090;-66
2023/01/13 03:58:48;;;;;;;31.40;6.27;;;;;;;;;;5050179;28;20132;-66
2023/01/13 04:01:21;;;;;;;35.70;8.63;;;;;;;;;;5050318;28;20048;-66
2023/01/13 04:04:05;;;;;;;32.83;7.17;;;;;;;;;;5049534;28;20045;-66
2023/01/13 04:06:49;;;;;;;33.87;6.87;;;;;;;;;;5049940;28;20044;-66
2023/01/13 04:09:25;;;;;;;31.03;6.83;;;;;;;;;;5050425;28;20045;-66
2023/01/13 04:12:02;;;;;;;28.70;5.63;;;;;;;;;;5049427;28;20053;-66
2023/01/13 04:14:28;;;;;;;36.93;7.57;;;;;;;;;;5048487;28;20088;-66
2023/01/13 04:16:54;;;;;;;24.30;4.70;;;;;;;;;;5069856;28;20449;-66
2023/01/13 04:19:21;;;;;;;35.73;8.50;;;;;;;;;;5069808;28;20479;-66
2023/01/13 04:21:47;;;;;;;35.47;7.47;;;;;;;;;;5068672;28;20139;-66
2023/01/13 04:24:13;;;;;;;42.07;8.07;;;;;;;;;;5069722;28;20135;-66
2023/01/13 04:26:39;;;;;;;30.83;6.80;;;;;;;;;;5050965;28;20167;-66
2023/01/13 04:29:05;;;;;;;31.07;6.23;;;;;;;;;;5049754;28;20139;-66
2023/01/13 04:31:31;;;;;;;37.47;8.40;;;;;;;;;;5049396;28;20128;-66
2023/01/13 04:33:57;;;;;;;30.47;6.63;;;;;;;;;;5049286;28;20084;-65
2023/01/13 04:36:26;;;;;;;33.80;6.97;;;;;;;;;;5063161;28;20383;-66
2023/01/13 04:38:52;;;;;;;35.30;7.47;;;;;;;;;;5067846;28;20109;-65
2023/01/13 04:41:18;;;;;;;31.70;6.83;;;;;;;;;;5067972;28;20498;-66
2023/01/13 04:43:44;;;;;;;30.67;6.30;;;;;;;;;;5068023;28;20131;-66
2023/01/13 04:46:10;;;;;;;26.87;5.27;;;;;;;;;;5068632;28;20044;-66
2023/01/13 04:48:36;;;;;;;26.17;5.80;;;;;;;;;;5069277;28;20553;-66
2023/01/13 04:51:02;;;;;;;33.37;7.27;;;;;;;;;;5068738;28;20040;-66
2023/01/13 04:53:28;;;;;;;28.00;6.87;;;;;;;;;;5069397;28;20130;-66
2023/01/13 04:55:54;;;;;;;31.13;7.20;;;;;;;;;;5054177;28;20079;-65
2023/01/13 04:58:20;;;;;;;31.47;5.97;;;;;;;;;;5049198;28;20056;-65
2023/01/13 05:00:46;;;;;;;26.20;6.87;;;;;;;;;;5047953;28;20049;-65
2023/01/13 05:03:12;;;;;;;29.63;6.47;;;;;;;;;;5048971;28;20048;-65
2023/01/13 05:05:38;;;;;;;42.67;7.63;;;;;;;;;;5047900;28;20179;-65
2023/01/13 05:08:05;;;;;;;33.13;6.20;;;;;;;;;;5049092;28;20056;-65
2023/01/13 05:10:31;;;;;;;43.90;9.67;;;;;;;;;;5047614;28;20403;-65
2023/01/13 05:18:27;;;;;;;24.03;5.13;;;;;;;;;;5069303;28;20049;-65
2023/01/13 05:20:53;;;;;;;22.57;4.67;;;;;;;;;;5068992;28;20105;-65
2023/01/13 05:26:04;;;;;;;31.07;6.70;;;;;;;;;;5052427;28;20080;-66
2023/01/13 05:28:31;;;;;;;19.93;4.27;;;;;;;;;;5048730;28;20509;-65
2023/01/13 05:30:57;;;;;;;32.80;5.83;;;;;;;;;;5048956;28;20076;-65
2023/01/13 05:33:23;;;;;;;27.47;5.70;;;;;;;;;;5047377;28;20076;-65
2023/01/13 05:35:50;;;;;;;25.67;5.40;;;;;;;;;;5060078;28;20040;-65
2023/01/13 05:38:16;;;;;;;28.20;5.80;;;;;;;;;;5068590;28;20161;-65
2023/01/13 05:43:28;;;;;;;27.63;4.47;;;;;;;;;;5068822;28;20055;-65
2023/01/13 05:46:00;;;;;;;22.57;5.33;;;;;;;;;;5067053;28;20140;-65
2023/01/13 05:48:33;;;;;;;24.13;6.80;;;;;;;;;;5071255;28;20051;-65
2023/01/13 05:51:01;;;;;;;17.05;4.93;;;;;;;;;;5072500;28;20562;-65
2023/01/13 05:53:27;;;;;;;28.07;5.23;;;;;;;;;;5071254;28;20487;-66
2023/01/13 05:55:53;;;;;;;23.00;5.40;;;;;;;;;;5055444;28;20088;-66
2023/01/13 05:58:20;;;;;;;25.13;6.40;;;;;;;;;;5052688;28;20456;-65
2023/01/13 06:00:46;;;;;;;21.83;5.07;;;;;;;;;;5049883;28;20134;-65
2023/01/13 06:03:13;;;;;;;22.03;5.67;;;;;;;;;;5050674;28;20419;-66
2023/01/13 06:05:39;;;;;;;17.30;5.70;;;;;;;;;;5049953;28;20539;-65
2023/01/13 06:08:06;;;;;;;20.43;5.57;;;;;;;;;;5049932;28;20041;-65
2023/01/13 06:10:32;;;;;;;26.07;7.77;;;;;;;;;;5050488;28;20504;-66
2023/01/13 06:12:59;;;;;;;22.47;5.00;;;;;;;;;;5058076;28;20048;-66
2023/01/13 06:15:25;;;;;;;26.80;5.43;;;;;;;;;;5071770;28;20253;-65
2023/01/13 06:17:51;;;;;;;19.43;5.00;;;;;;;;;;5070093;28;20514;-65
2023/01/13 06:20:17;;;;;;;16.87;4.33;;;;;;;;;;5072096;28;20095;-65
2023/01/13 06:22:46;;;;;;;18.77;4.87;;;;;;;;;;5070111;28;20106;-66
2023/01/13 06:25:16;;;;;;;16.73;4.47;;;;;;;;;;5071696;28;20044;-66
2023/01/13 06:27:42;;;;;;;20.10;4.53;;;;;;;;;;5054014;28;20058;-66
2023/01/13 06:30:08;;;;;;;18.37;4.13;;;;;;;;;;5060064;28;20094;-66
2023/01/13 06:32:37;;;;;;;17.30;4.47;;;;;;;;;;5058034;28;20177;-65
2023/01/13 06:35:07;;;;;;;20.33;4.40;;;;;;;;;;5070269;28;20512;-65
2023/01/13 06:37:34;;;;;;;21.63;4.07;;;;;;;;;;5071711;28;20061;-65
2023/01/13 06:40:02;;;;;;;17.13;3.70;;;;;;;;;;5070008;28;20052;-65
2023/01/13 06:45:14;;;;;;;14.77;3.10;;;;;;;;;;5071740;28;20139;-66
2023/01/13 06:47:40;;;;;;;15.77;3.77;;;;;;;;;;5071171;28;20061;-66
2023/01/13 06:50:06;;;;;;;15.33;4.00;;;;;;;;;;5071544;28;20457;-66
2023/01/13 06:52:32;;;;;;;18.43;4.43;;;;;;;;;;5068055;28;20706;-66
2023/01/13 06:54:58;;;;;;;16.10;4.43;;;;;;;;;;5053003;28;20044;-65
2023/01/13 06:57:25;;;;;;;24.17;4.17;;;;;;;;;;5050492;28;20499;-65
2023/01/13 06:59:51;;;;;;;23.53;4.60;;;;;;;;;;5051376;28;20105;-65
2023/01/13 07:02:17;;;;;;;16.37;3.53;;;;;;;;;;5051005;28;20132;-65
2023/01/13 07:04:45;;;;;;;19.73;3.70;;;;;;;;;;5062224;28;20179;-66
2023/01/13 07:07:11;;;;;;;27.87;4.87;;;;;;;;;;5051199;28;20053;-65
2023/01/13 07:09:38;;;;;;;22.90;4.97;;;;;;;;;;5050973;28;20045;-65
2023/01/13 07:12:04;;;;;;;18.73;3.00;;;;;;;;;;5051149;28;20041;-65
2023/01/13 07:17:14;;;;;;;17.97;4.07;;;;;;;;;;5051095;28;20060;-65
2023/01/13 07:19:40;;;;;;;21.43;3.87;;;;;;;;;;5050258;28;20084;-65
2023/01/13 07:22:06;;;;;;;23.93;4.60;;;;;;;;;;5050145;28;20157;-65
2023/01/13 07:24:32;;;;;;;12.83;3.50;;;;;;;;;;5066413;28;20049;-66
2023/01/13 07:26:58;;;;;;;25.27;3.70;;;;;;;;;;5070833;28;20048;-66
2023/01/13 07:29:24;;;;;;;22.73;4.77;;;;;;;;;;5058190;28;20045;-66
2023/01/13 07:31:50;;;;;;;27.87;4.90;;;;;;;;;;5053575;28;20051;-66
2023/01/13 07:34:16;;;;;;;21.93;4.27;;;;;;;;;;5058392;28;20529;-67
2023/01/13 07:36:42;;;;;;;28.80;4.73;;;;;;;;;;5056124;28;20495;-68
2023/01/13 07:39:08;;;;;;;28.43;4.60;;;;;;;;;;5053063;28;20053;-65
2023/01/13 07:44:19;;;;;;;24.87;4.60;;;;;;;;;;5053710;28;20457;-65
2023/01/13 07:46:45;;;;;;;33.73;4.60;;;;;;;;;;5055201;28;20055;-65
2023/01/13 07:49:12;;;;;;;31.53;3.83;;;;;;;;;;5050979;28;20095;-64
2023/01/13 07:51:38;;;;;;;29.77;4.73;;;;;;;;;;5054764;28;20511;-67
2023/01/13 07:54:04;;;;;;;29.97;5.87;;;;;;;;;;5066514;28;20127;-67
2023/01/13 07:56:30;;;;;;;28.20;5.40;;;;;;;;;;5062420;28;20036;-66
2023/01/13 07:58:58;;;;;;;30.13;4.57;;;;;;;;;;5060338;28;20044;-66
2023/01/13 08:01:26;;;;;;;33.17;5.33;;;;;;;;;;5074399;28;20445;-65
2023/01/13 08:03:52;;;;;;;40.80;7.40;;;;;;;;;;5068941;28;20080;-67
2023/01/13 08:06:18;;;;;;;28.10;4.83;;;;;;;;;;5069468;28;20080;-67
2023/01/13 08:08:44;;;;;;;22.03;4.43;;;;;;;;;;5049732;28;20037;-66
2023/01/13 08:11:10;;;;;;;41.20;5.17;;;;;;;;;;5068340;28;20044;-66
2023/01/13 08:13:36;;;;;;;29.10;4.97;;;;;;;;;;5069693;28;20048;-66
2023/01/13 08:16:04;;;;;;;27.40;5.10;;;;;;;;;;5064283;28;20142;-66
2023/01/13 08:18:33;;;;;;;33.33;7.13;;;;;;;;;;5048581;28;20049;-67
2023/01/13 08:21:03;;;;;;;33.93;6.33;;;;;;;;;;5049137;28;20521;-66
2023/01/13 08:23:29;;;;;;;28.83;6.17;;;;;;;;;;5049385;28;20041;-67
2023/01/13 08:25:58;;;;;;;31.20;5.37;;;;;;;;;;5048224;28;20135;-66
2023/01/13 08:28:24;;;;;;;29.17;5.13;;;;;;;;;;5048918;28;20045;-66
2023/01/13 08:30:52;;;;;;;30.67;5.27;;;;;;;;;;5049394;28;20059;-67
2023/01/13 08:33:19;;;;;;;32.37;6.10;;;;;;;;;;5048234;28;20179;-66
2023/01/13 08:35:45;;;;;;;36.77;6.93;;;;;;;;;;5067210;28;20055;-66
2023/01/13 08:38:11;;;;;;;34.60;6.37;;;;;;;;;;5069346;28;20056;-66
2023/01/13 08:40:39;;;;;;;32.70;5.97;;;;;;;;;;5068817;28;20055;-67
2023/01/13 08:43:05;;;;;;;28.33;6.30;;;;;;;;;;5068605;28;20044;-67
2023/01/13 08:45:31;;;;;;;30.13;5.13;;;;;;;;;;5067781;28;20178;-67
2023/01/13 08:47:57;;;;;;;38.47;6.10;;;;;;;;;;5068986;28;20131;-66
2023/01/13 08:50:23;;;;;;;27.43;4.87;;;;;;;;;;5061655;28;20049;-66
2023/01/13 08:52:49;;;;;;;34.17;6.43;;;;;;;;;;5046980;28;20045;-66
2023/01/13 08:55:15;;;;;;;40.40;5.30;;;;;;;;;;5048865;28;20041;-67
2023/01/13 08:57:41;;;;;;;33.33;5.23;;;;;;;;;;5047561;28;20055;-68
2023/01/13 09:00:08;;;;;;;25.73;5.47;;;;;;;;;;5049390;28;20053;-68
2023/01/13 09:02:34;;;;;;;38.80;4.83;;;;;;;;;;5046617;28;20380;-68
2023/01/13 09:05:02;;;;;;;30.70;4.90;;;;;;;;;;5052205;28;20047;-67
2023/01/13 09:07:29;;;;;;;35.87;7.10;;;;;;;;;;5066584;28;20048;-67
2023/01/13 09:09:55;;;;;;;29.20;5.37;;;;;;;;;;5067605;28;20044;-67
2023/01/13 09:15:07;;;;;;;36.03;4.83;;;;;;;;;;5068211;28;20075;-67
2023/01/13 09:17:33;;;;;;;30.77;6.70;;;;;;;;;;5067550;28;20063;-67
2023/01/13 09:19:59;;;;;;;26.90;5.60;;;;;;;;;;5068502;28;20052;-67
2023/01/13 09:22:26;;;;;;;37.40;5.13;;;;;;;;;;5068447;28;20105;-67
2023/01/13 09:24:52;;;;;;;30.83;5.50;;;;;;;;;;5067904;28;20055;-67
2023/01/13 09:27:18;;;;;;;30.47;5.53;;;;;;;;;;5067082;28;20071;-67
2023/01/13 09:29:44;;;;;;;31.57;5.50;;;;;;;;;;5068086;28;20415;-67
2023/01/13 09:32:11;;;;;;;37.23;6.30;;;;;;;;;;5049697;28;20063;-66
2023/01/13 09:37:22;;;;;;;27.00;5.10;;;;;;;;;;5049380;28;20139;-66
2023/01/13 09:39:48;;;;;;;25.90;5.93;;;;;;;;;;5047266;28;20088;-66
2023/01/13 09:45:03;;;;;;;30.03;4.80;;;;;;;;;;5048298;28;20041;-67
2023/01/13 09:47:29;;;;;;;30.30;5.00;;;;;;;;;;5046538;28;20060;-66
2023/01/13 09:50:03;;;;;;;27.27;4.43;;;;;;;;;;5048091;28;20728;-66
2023/01/13 09:52:29;;;;;;;37.45;7.38;;;;;;;;;;5046413;28;20499;-66
2023/01/13 09:54:58;;;;;;;36.73;5.87;;;;;;;;;;5047492;28;20061;-67
2023/01/13 09:57:24;;;;;;;32.63;7.50;;;;;;;;;;5048007;28;20049;-67
2023/01/13 09:59:50;;;;;;;36.93;5.73;;;;;;;;;;5047771;28;20098;-68
2023/01/13 10:02:34;;;;;;;37.43;5.30;;;;;;;;;;5047879;28;20476;-67
2023/01/13 10:05:05;;;;;;;38.80;5.90;;;;;;;;;;5046687;28;20067;-68
2023/01/13 10:07:33;;;;;;;33.67;5.80;;;;;;;;;;5047421;28;20041;-67
2023/01/13 10:10:02;;;;;;;34.67;6.50;;;;;;;;;;5047659;28;20135;-68
2023/01/13 10:15:16;;;;;;;37.40;7.40;;;;;;;;;;5047821;28;20049;-67
2023/01/13 10:17:50;;;;;;;39.87;7.00;;;;;;;;;;5048091;28;20115;-67
2023/01/13 10:20:25;;;;;;;38.70;7.53;;;;;;;;;;5047715;28;20652;-66
2023/01/13 10:23:00;;;;;;;33.47;8.27;;;;;;;;;;5045826;28;20052;-67
2023/01/13 10:25:29;;;;;;;34.23;6.67;;;;;;;;;;5046649;28;20460;-66
2023/01/13 10:28:03;;;;;;;42.23;6.80;;;;;;;;;;5046394;28;20457;-66
2023/01/13 10:30:33;;;;;;;35.70;6.18;;;;;;;;;;5046462;28;20045;-66
2023/01/13 10:33:09;;;;;;;50.10;6.47;;;;;;;;;;5049583;28;20370;-67
2023/01/13 10:35:48;;;;;;;39.97;6.93;;;;;;;;;;5055300;28;20499;-67
2023/01/13 10:38:35;;;;;;;48.40;6.13;;;;;;;;;;5071170;28;20095;-67
2023/01/13 10:41:02;;;;;;;45.07;7.67;;;;;;;;;;5070406;28;20460;-67
2023/01/13 10:43:28;;;;;;;39.03;6.00;;;;;;;;;;5069905;28;20072;-67
2023/01/13 10:45:57;;;;;;;36.60;5.33;;;;;;;;;;5070947;28;20047;-67
2023/01/13 10:48:31;;;;;;;40.20;5.80;;;;;;;;;;5070850;28;20056;-67
2023/01/13 10:50:57;;;;;;;43.50;6.07;;;;;;;;;;5070701;28;20047;-67
2023/01/13 10:53:25;;;;;;;30.00;6.03;;;;;;;;;;5069592;28;20509;-67
2023/01/13 10:55:58;;;;;;;33.17;6.00;;;;;;;;;;5070547;28;20044;-67
2023/01/13 10:58:24;;;;;;;44.77;7.33;;;;;;;;;;5053027;28;20045;-67
2023/01/13 11:00:58;;;;;;;46.37;6.90;;;;;;;;;;5070570;28;20088;-67
2023/01/13 11:03:24;;;;;;;38.80;7.38;;;;;;;;;;5070856;28;20044;-67
2023/01/13 11:05:59;;;;;;;29.67;5.63;;;;;;;;;;5069143;28;20048;-67
2023/01/13 11:08:27;;;;;;;38.97;6.37;;;;;;;;;;5070768;28;20126;-67
2023/01/13 11:10:54;;;;;;;41.47;6.23;;;;;;;;;;5069474;28;20433;-67
2023/01/13 11:13:30;;;;;;;28.87;5.50;;;;;;;;;;5052712;28;20051;-67
2023/01/13 11:16:01;;;;;;;34.27;6.00;;;;;;;;;;5070944;28;20048;-67
2023/01/13 11:18:39;;;;;;;41.53;7.00;;;;;;;;;;5068892;28;20091;-66
2023/01/13 11:21:11;;;;;;;41.00;6.30;;;;;;;;;;5070396;28;20254;-67
2023/01/13 11:23:41;;;;;;;32.73;5.90;;;;;;;;;;5070517;28;20055;-66
2023/01/13 11:26:13;;;;;;;46.00;7.17;;;;;;;;;;5069099;28;20506;-67
2023/01/13 11:28:43;;;;;;;34.70;6.90;;;;;;;;;;5068990;28;20701;-66
2023/01/13 11:31:23;;;;;;;30.80;5.93;;;;;;;;;;5069784;28;20106;-68
2023/01/13 11:33:56;;;;;;;37.30;5.93;;;;;;;;;;5070363;28;20044;-68
2023/01/13 11:36:24;;;;;;;32.63;6.03;;;;;;;;;;5058512;28;20501;-67
2023/01/13 11:38:55;;;;;;;35.87;5.37;;;;;;;;;;5050820;28;20048;-67
2023/01/13 11:41:31;;;;;;;33.10;5.33;;;;;;;;;;5048621;28;20080;-67
2023/01/13 11:44:07;;;;;;;33.90;5.60;;;;;;;;;;5059816;28;20045;-68
2023/01/13 11:46:33;;;;;;;30.83;5.63;;;;;;;;;;5065703;28;20250;-67
2023/01/13 11:49:00;;;;;;;35.57;6.77;;;;;;;;;;5055428;28;20089;-67
2023/01/13 11:51:29;;;;;;;32.87;5.37;;;;;;;;;;5048758;28;20067;-67
2023/01/13 11:53:55;;;;;;;35.33;6.53;;;;;;;;;;5069217;28;20111;-67
2023/01/13 11:56:30;;;;;;;32.53;5.50;;;;;;;;;;5067293;28;20040;-67
2023/01/13 11:59:12;;;;;;;37.67;6.47;;;;;;;;;;5067478;28;20517;-66
2023/01/13 12:01:56;;;;;;;26.00;5.70;;;;;;;;;;5051806;28;20041;-66
2023/01/13 12:04:22;;;;;;;31.27;5.63;;;;;;;;;;5068792;28;20139;-66
2023/01/13 12:06:57;;;;;;;51.57;8.00;;;;;;;;;;5068036;28;20048;-67
2023/01/13 12:09:27;;;;;;;30.80;5.47;;;;;;;;;;5068800;28;20059;-66
2023/01/13 12:12:18;;;;;;;26.13;5.07;;;;;;;;;;5067654;28;20090;-66
2023/01/13 12:15:02;;;;;;;30.23;7.80;;;;;;;;;;5068124;28;20087;-66
2023/01/13 12:17:44;;;;;;;21.07;4.13;;;;;;;;;;5053931;28;20081;-67
2023/01/13 12:20:29;;;;;;;23.97;4.47;;;;;;;;;;5049700;28;20053;-67
2023/01/13 12:22:57;;;;;;;24.60;4.27;;;;;;;;;;5067154;28;20045;-66
2023/01/13 12:25:38;;;;;;;22.80;4.63;;;;;;;;;;5066636;28;20088;-66
2023/01/13 12:28:13;;;;;;;17.60;3.73;;;;;;;;;;5068883;28;20054;-67
2023/01/13 12:30:49;;;;;;;33.67;5.10;;;;;;;;;;5068968;28;20087;-66
2023/01/13 12:33:21;;;;;;;21.03;4.23;;;;;;;;;;5069483;28;20054;-66
2023/01/13 12:35:59;;;;;;;21.83;4.80;;;;;;;;;;5067020;28;20135;-67
2023/01/13 12:38:38;;;;;;;20.03;3.97;;;;;;;;;;5049497;28;20519;-67
2023/01/13 12:41:31;;;;;;;16.90;4.03;;;;;;;;;;5048971;28;20182;-66
2023/01/13 12:44:15;;;;;;;22.50;3.80;;;;;;;;;;5040419;28;20519;-67
2023/01/13 12:46:51;;;;;;;29.50;4.33;;;;;;;;;;5062334;28;20098;-66
2023/01/13 12:49:28;;;;;;;17.57;3.80;;;;;;;;;;5068870;28;20527;-66
2023/01/13 12:51:54;;;;;;;25.93;3.57;;;;;;;;;;5055485;28;20060;-66
2023/01/13 12:54:29;;;;;;;23.77;3.80;;;;;;;;;;5063965;28;20064;-67
2023/01/13 12:56:58;;;;;;;26.77;4.10;;;;;;;;;;5060984;28;20059;-67
2023/01/13 12:59:24;;;;;;;27.27;4.07;;;;;;;;;;5056365;28;20070;-66
2023/01/13 13:01:51;;;;;;;21.00;3.53;;;;;;;;;;5065866;28;20064;-67
2023/01/13 13:04:40;;;;;;;17.27;2.90;;;;;;;;;;5068669;28;20502;-67
2023/01/13 13:07:12;;;;;;;24.03;3.20;;;;;;;;;;5052164;28;20037;-66
2023/01/13 13:09:42;;;;;;;22.37;3.80;;;;;;;;;;5061437;28;20450;-66
2023/01/13 13:15:24;;;;;;;22.08;3.22;;;;;;;;;;5058346;28;20064;-66
2023/01/13 13:17:59;;;;;;;18.83;2.73;;;;;;;;;;5047002;28;20132;-67
2023/01/13 13:20:44;;;;;;;19.60;3.17;;;;;;;;;;5047253;28;20057;-66
2023/01/13 13:23:28;;;;;;;17.00;3.93;;;;;;;;;;5048461;28;20507;-66
2023/01/13 13:26:01;;;;;;;15.37;2.90;;;;;;;;;;5047638;28;20574;-66
2023/01/13 13:28:31;;;;;;;15.80;2.93;;;;;;;;;;5046995;28;20537;-66
2023/01/13 13:31:10;;;;;;;15.67;3.03;;;;;;;;;;5047015;28;20068;-67
2023/01/13 13:33:59;;;;;;;14.10;3.50;;;;;;;;;;5048187;28;20045;-67
2023/01/13 13:36:44;;;;;;;20.50;3.83;;;;;;;;;;5046733;28;20417;-66
2023/01/13 13:47:40;;;;;;;21.53;3.57;;;;;;;;;;5047910;28;20093;-67
2023/01/13 13:50:20;;;;;;;12.13;3.33;;;;;;;;;;5048311;28;20052;-66
2023/01/13 13:52:54;;;;;;;17.13;2.77;;;;;;;;;;5046350;28;20457;-67
2023/01/13 13:55:24;;;;;;;17.97;3.03;;;;;;;;;;5047873;28;20063;-66
2023/01/13 13:57:51;;;;;;;9.83;2.60;;;;;;;;;;5029832;28;20048;-66
2023/01/13 14:00:23;;;;;;;13.43;2.80;;;;;;;;;;5047714;28;20045;-66
2023/01/13 14:03:00;;;;;;;20.40;2.93;;;;;;;;;;5046322;28;20103;-66
2023/01/13 14:05:36;;;;;;;14.20;2.83;;;;;;;;;;5046870;28;20075;-67
2023/01/13 14:08:08;;;;;;;21.23;3.87;;;;;;;;;;5050832;28;20049;-67
2023/01/13 14:10:36;;;;;;;18.07;2.80;;;;;;;;;;5050535;28;20045;-67
2023/01/13 14:13:13;;;;;;;20.00;3.30;;;;;;;;;;5052246;28;20457;-67
2023/01/13 14:15:40;;;;;;;17.03;2.43;;;;;;;;;;5051442;28;20116;-67
2023/01/13 14:18:13;;;;;;;14.70;3.63;;;;;;;;;;5051745;28;20538;-67
2023/01/13 14:20:39;;;;;;;14.27;2.65;;;;;;;;;;5050208;28;20057;-67
2023/01/13 14:23:06;;;;;;;15.00;2.87;;;;;;;;;;5033939;28;20066;-66
2023/01/13 14:25:33;;;;;;;19.47;3.30;;;;;;;;;;5050494;28;20144;-66
2023/01/13 14:28:04;;;;;;;15.30;2.70;;;;;;;;;;5050981;28;20124;-66
2023/01/13 14:30:31;;;;;;;13.70;2.30;;;;;;;;;;5050504;28;20866;-66
2023/01/13 14:32:58;;;;;;;14.33;2.47;;;;;;;;;;5051611;28;20463;-67
2023/01/13 14:35:24;;;;;;;15.43;3.70;;;;;;;;;;5054145;28;20053;-66
2023/01/13 14:37:53;;;;;;;21.27;3.50;;;;;;;;;;5071024;28;20044;-67
2023/01/13 14:40:43;;;;;;;17.60;2.90;;;;;;;;;;5069670;28;20092;-67
2023/01/13 14:43:17;;;;;;;17.43;2.77;;;;;;;;;;5070042;28;20059;-66
2023/01/13 14:46:04;;;;;;;13.63;3.43;;;;;;;;;;5069846;28;20048;-66
2023/01/13 14:48:34;;;;;;;17.73;2.93;;;;;;;;;;5069591;28;20052;-66
2023/01/13 14:51:01;;;;;;;17.03;2.80;;;;;;;;;;5071387;28;20135;-66
2023/01/13 14:53:39;;;;;;;15.47;2.67;;;;;;;;;;5071099;28;20550;-66
2023/01/13 14:56:24;;;;;;;12.67;2.40;;;;;;;;;;5053124;28;20106;-67
2023/01/13 14:58:50;;;;;;;10.73;2.77;;;;;;;;;;5070668;28;20055;-66
2023/01/13 15:01:25;;;;;;;12.37;2.70;;;;;;;;;;5070936;28;20044;-67
2023/01/13 15:03:51;;;;;;;10.20;2.13;;;;;;;;;;5069559;28;20052;-66
2023/01/13 15:06:22;;;;;;;13.10;2.77;;;;;;;;;;5069893;28;20406;-67
2023/01/13 15:08:49;;;;;;;16.53;2.27;;;;;;;;;;5053127;28;20465;-66
2023/01/13 15:11:22;;;;;;;9.23;2.43;;;;;;;;;;5070464;28;20132;-66
2023/01/13 15:13:56;;;;;;;18.50;2.97;;;;;;;;;;5070828;28;20211;-67
2023/01/13 15:16:23;;;;;;;;;;;;;;;;;;5071333;28;20048;-66
2023/01/13 15:18:49;;;;;;;13.73;2.70;;;;;;;;;;5068945;28;19924;-66
2023/01/13 15:21:15;;;;;;;21.23;3.43;;;;;;;;;;5068986;28;20106;-66
2023/01/13 15:23:42;;;;;;;11.03;2.43;;;;;;;;;;5069174;28;20054;-66
2023/01/13 15:26:22;;;;;;;13.77;2.80;;;;;;;;;;5070458;28;20176;-67
2023/01/13 15:28:48;;;;;;;11.27;2.70;;;;;;;;;;5070443;28;20408;-66
2023/01/13 15:31:15;;;;;;;12.13;2.87;;;;;;;;;;5070323;28;20064;-66
2023/01/13 15:33:42;;;;;;;16.47;2.17;;;;;;;;;;5068647;28;20129;-66
2023/01/13 15:36:19;;;;;;;14.27;2.83;;;;;;;;;;5060354;28;20500;-66
2023/01/13 15:38:45;;;;;;;13.60;2.80;;;;;;;;;;5032211;28;20045;-66
2023/01/13 15:41:11;;;;;;;15.37;3.80;;;;;;;;;;5048288;28;20045;-66